Terminal Aerodrome Forecast
Issued by NWS

Home | Current Version | Previous Version | Text Only | Print | Product List | Glossary On
Versions: 1 2 3 4 5 6 7 8 9 10 11 12 13 14 15
000
FTUS42 KGSP 182339
TAFAND
TAF
KAND 182339Z 1900/1924 24004KT P6SM BKN050 OVC200
     FM190400 30003KT P6SM SCT070
     FM191300 05005KT P6SM SCT200
     FM191900 VRB03KT P6SM BKN180=

USA.gov is the U.S. government's official web portal to all federal, state and local government web resources and services.